sensor_id;sensor_type;location;lat;lon;timestamp;P1;durP1;ratioP1;P2;durP2;ratioP2
43678;SDS011;29279;50.858;4.392;2023-05-16T00:00:16;27.52;;;3.72;;
43678;SDS011;29279;50.858;4.392;2023-05-16T00:02:42;38.90;;;4.70;;
43678;SDS011;29279;50.858;4.392;2023-05-16T00:05:08;27.80;;;3.53;;
43678;SDS011;29279;50.858;4.392;2023-05-16T00:07:40;28.25;;;4.90;;
43678;SDS011;29279;50.858;4.392;2023-05-16T00:10:08;38.17;;;4.28;;
43678;SDS011;29279;50.858;4.392;2023-05-16T00:12:36;23.58;;;3.40;;
43678;SDS011;29279;50.858;4.392;2023-05-16T00:15:03;26.63;;;3.63;;
43678;SDS011;29279;50.858;4.392;2023-05-16T00:17:32;28.80;;;3.85;;
43678;SDS011;29279;50.858;4.392;2023-05-16T00:19:59;29.95;;;3.88;;
43678;SDS011;29279;50.858;4.392;2023-05-16T00:22:26;21.92;;;3.53;;
43678;SDS011;29279;50.858;4.392;2023-05-16T00:24:52;28.77;;;4.05;;
43678;SDS011;29279;50.858;4.392;2023-05-16T00:27:18;23.75;;;3.50;;
43678;SDS011;29279;50.858;4.392;2023-05-16T00:29:44;27.17;;;4.72;;
43678;SDS011;29279;50.858;4.392;2023-05-16T00:32:09;37.70;;;4.00;;
43678;SDS011;29279;50.858;4.392;2023-05-16T00:34:35;28.13;;;4.07;;
43678;SDS011;29279;50.858;4.392;2023-05-16T00:37:01;29.33;;;3.70;;
43678;SDS011;29279;50.858;4.392;2023-05-16T00:39:26;24.55;;;2.92;;
43678;SDS011;29279;50.858;4.392;2023-05-16T00:41:52;24.10;;;3.58;;
43678;SDS011;29279;50.858;4.392;2023-05-16T00:44:18;26.58;;;3.72;;
43678;SDS011;29279;50.858;4.392;2023-05-16T00:46:44;31.50;;;3.63;;
43678;SDS011;29279;50.858;4.392;2023-05-16T00:49:13;31.90;;;4.25;;
43678;SDS011;29279;50.858;4.392;2023-05-16T00:51:39;23.27;;;3.65;;
43678;SDS011;29279;50.858;4.392;2023-05-16T00:54:05;23.38;;;3.50;;
43678;SDS011;29279;50.858;4.392;2023-05-16T00:56:31;29.80;;;3.38;;
43678;SDS011;29279;50.858;4.392;2023-05-16T00:58:57;34.25;;;5.15;;
43678;SDS011;29279;50.858;4.392;2023-05-16T01:01:24;26.58;;;3.78;;
43678;SDS011;29279;50.858;4.392;2023-05-16T01:03:51;28.30;;;4.35;;
43678;SDS011;29279;50.858;4.392;2023-05-16T01:06:17;29.48;;;3.70;;
43678;SDS011;29279;50.858;4.392;2023-05-16T01:08:43;26.90;;;3.83;;
43678;SDS011;29279;50.858;4.392;2023-05-16T01:16:47;32.50;;;3.50;;
43678;SDS011;29279;50.858;4.392;2023-05-16T01:22:08;18.48;;;3.20;;
43678;SDS011;29279;50.858;4.392;2023-05-16T01:27:35;22.00;;;3.30;;
43678;SDS011;29279;50.858;4.392;2023-05-16T01:30:13;33.22;;;3.95;;
43678;SDS011;29279;50.858;4.392;2023-05-16T01:32:41;29.23;;;4.30;;
43678;SDS011;29279;50.858;4.392;2023-05-16T01:35:07;26.02;;;3.45;;
43678;SDS011;29279;50.858;4.392;2023-05-16T01:37:37;29.15;;;3.22;;
43678;SDS011;29279;50.858;4.392;2023-05-16T01:40:15;26.77;;;4.28;;
43678;SDS011;29279;50.858;4.392;2023-05-16T01:42:57;19.08;;;2.83;;
43678;SDS011;29279;50.858;4.392;2023-05-16T01:45:31;28.23;;;3.47;;
43678;SDS011;29279;50.858;4.392;2023-05-16T01:48:09;27.27;;;4.47;;
43678;SDS011;29279;50.858;4.392;2023-05-16T01:50:41;23.58;;;3.40;;
43678;SDS011;29279;50.858;4.392;2023-05-16T01:53:19;22.50;;;3.58;;
43678;SDS011;29279;50.858;4.392;2023-05-16T01:55:54;24.75;;;3.33;;
43678;SDS011;29279;50.858;4.392;2023-05-16T01:58:22;35.00;;;4.97;;
43678;SDS011;29279;50.858;4.392;2023-05-16T02:00:52;42.53;;;5.35;;
43678;SDS011;29279;50.858;4.392;2023-05-16T02:03:18;19.23;;;3.70;;
43678;SDS011;29279;50.858;4.392;2023-05-16T02:05:44;30.80;;;3.85;;
43678;SDS011;29279;50.858;4.392;2023-05-16T02:08:10;21.20;;;3.10;;
43678;SDS011;29279;50.858;4.392;2023-05-16T02:10:38;31.65;;;3.92;;
43678;SDS011;29279;50.858;4.392;2023-05-16T02:13:05;22.63;;;3.78;;
43678;SDS011;29279;50.858;4.392;2023-05-16T02:15:31;17.38;;;3.35;;
43678;SDS011;29279;50.858;4.392;2023-05-16T02:17:57;22.77;;;3.75;;
43678;SDS011;29279;50.858;4.392;2023-05-16T02:20:22;23.48;;;3.35;;
43678;SDS011;29279;50.858;4.392;2023-05-16T02:22:48;21.77;;;3.70;;
43678;SDS011;29279;50.858;4.392;2023-05-16T02:25:14;18.08;;;3.42;;
43678;SDS011;29279;50.858;4.392;2023-05-16T02:27:40;30.23;;;3.80;;
43678;SDS011;29279;50.858;4.392;2023-05-16T02:30:07;32.53;;;5.18;;
43678;SDS011;29279;50.858;4.392;2023-05-16T02:32:34;27.98;;;3.90;;
43678;SDS011;29279;50.858;4.392;2023-05-16T02:35:00;23.08;;;4.38;;
43678;SDS011;29279;50.858;4.392;2023-05-16T02:37:25;23.88;;;3.47;;
43678;SDS011;29279;50.858;4.392;2023-05-16T02:39:54;27.50;;;3.80;;
43678;SDS011;29279;50.858;4.392;2023-05-16T02:42:20;33.58;;;3.40;;
43678;SDS011;29279;50.858;4.392;2023-05-16T02:44:45;28.67;;;3.95;;
43678;SDS011;29279;50.858;4.392;2023-05-16T02:47:11;19.58;;;4.65;;
43678;SDS011;29279;50.858;4.392;2023-05-16T02:49:37;26.00;;;4.72;;
43678;SDS011;29279;50.858;4.392;2023-05-16T02:52:02;25.58;;;4.18;;
43678;SDS011;29279;50.858;4.392;2023-05-16T02:54:28;39.63;;;4.20;;
43678;SDS011;29279;50.858;4.392;2023-05-16T02:56:54;29.88;;;3.63;;
43678;SDS011;29279;50.858;4.392;2023-05-16T02:59:20;23.98;;;3.97;;
43678;SDS011;29279;50.858;4.392;2023-05-16T03:01:46;23.73;;;3.72;;
43678;SDS011;29279;50.858;4.392;2023-05-16T03:04:11;30.98;;;4.13;;
43678;SDS011;29279;50.858;4.392;2023-05-16T03:06:37;27.05;;;4.53;;
43678;SDS011;29279;50.858;4.392;2023-05-16T03:09:03;22.17;;;4.07;;
43678;SDS011;29279;50.858;4.392;2023-05-16T03:11:28;28.33;;;4.25;;
43678;SDS011;29279;50.858;4.392;2023-05-16T03:13:55;43.92;;;5.47;;
43678;SDS011;29279;50.858;4.392;2023-05-16T03:16:24;18.70;;;3.05;;
43678;SDS011;29279;50.858;4.392;2023-05-16T03:18:49;30.23;;;4.43;;
43678;SDS011;29279;50.858;4.392;2023-05-16T03:21:15;33.30;;;4.55;;
43678;SDS011;29279;50.858;4.392;2023-05-16T03:23:42;24.55;;;3.67;;
43678;SDS011;29279;50.858;4.392;2023-05-16T03:26:07;21.75;;;3.42;;
43678;SDS011;29279;50.858;4.392;2023-05-16T03:28:33;34.20;;;3.78;;
43678;SDS011;29279;50.858;4.392;2023-05-16T03:30:59;24.75;;;3.65;;
43678;SDS011;29279;50.858;4.392;2023-05-16T03:33:25;28.48;;;4.32;;
43678;SDS011;29279;50.858;4.392;2023-05-16T03:35:50;31.27;;;3.92;;
43678;SDS011;29279;50.858;4.392;2023-05-16T03:38:16;23.42;;;3.10;;
43678;SDS011;29279;50.858;4.392;2023-05-16T03:40:42;27.45;;;5.07;;
43678;SDS011;29279;50.858;4.392;2023-05-16T03:43:08;24.90;;;3.80;;
43678;SDS011;29279;50.858;4.392;2023-05-16T03:45:34;29.75;;;4.55;;
43678;SDS011;29279;50.858;4.392;2023-05-16T03:48:00;25.50;;;3.13;;
43678;SDS011;29279;50.858;4.392;2023-05-16T03:50:25;22.60;;;4.22;;
43678;SDS011;29279;50.858;4.392;2023-05-16T03:52:51;20.30;;;4.43;;
43678;SDS011;29279;50.858;4.392;2023-05-16T03:55:18;33.95;;;5.10;;
43678;SDS011;29279;50.858;4.392;2023-05-16T03:57:44;26.90;;;4.00;;
43678;SDS011;29279;50.858;4.392;2023-05-16T04:00:11;41.50;;;5.45;;
43678;SDS011;29279;50.858;4.392;2023-05-16T04:02:38;24.08;;;4.28;;
43678;SDS011;29279;50.858;4.392;2023-05-16T04:05:08;37.38;;;4.53;;
43678;SDS011;29279;50.858;4.392;2023-05-16T04:07:35;32.20;;;4.25;;
43678;SDS011;29279;50.858;4.392;2023-05-16T04:10:01;28.58;;;4.50;;
43678;SDS011;29279;50.858;4.392;2023-05-16T04:12:27;31.45;;;4.25;;
43678;SDS011;29279;50.858;4.392;2023-05-16T04:14:53;31.08;;;3.92;;
43678;SDS011;29279;50.858;4.392;2023-05-16T04:17:19;21.13;;;4.10;;
43678;SDS011;29279;50.858;4.392;2023-05-16T04:19:44;23.52;;;4.03;;
43678;SDS011;29279;50.858;4.392;2023-05-16T04:22:10;19.63;;;4.03;;
43678;SDS011;29279;50.858;4.392;2023-05-16T04:24:36;28.45;;;4.78;;
43678;SDS011;29279;50.858;4.392;2023-05-16T04:27:01;24.38;;;3.92;;
43678;SDS011;29279;50.858;4.392;2023-05-16T04:29:28;28.63;;;4.55;;
43678;SDS011;29279;50.858;4.392;2023-05-16T04:31:55;19.33;;;4.75;;
43678;SDS011;29279;50.858;4.392;2023-05-16T04:34:20;29.70;;;4.70;;
43678;SDS011;29279;50.858;4.392;2023-05-16T04:36:52;26.40;;;4.28;;
43678;SDS011;29279;50.858;4.392;2023-05-16T04:39:18;25.98;;;4.60;;
43678;SDS011;29279;50.858;4.392;2023-05-16T04:41:44;23.35;;;4.13;;
43678;SDS011;29279;50.858;4.392;2023-05-16T04:44:10;26.75;;;3.83;;
43678;SDS011;29279;50.858;4.392;2023-05-16T04:46:35;25.75;;;5.32;;
43678;SDS011;29279;50.858;4.392;2023-05-16T04:49:01;38.80;;;4.30;;
43678;SDS011;29279;50.858;4.392;2023-05-16T04:51:27;19.15;;;4.60;;
43678;SDS011;29279;50.858;4.392;2023-05-16T04:53:53;23.88;;;4.10;;
43678;SDS011;29279;50.858;4.392;2023-05-16T04:56:19;24.83;;;4.40;;
43678;SDS011;29279;50.858;4.392;2023-05-16T04:58:44;26.27;;;3.72;;
43678;SDS011;29279;50.858;4.392;2023-05-16T05:01:10;25.30;;;4.45;;
43678;SDS011;29279;50.858;4.392;2023-05-16T05:03:39;29.42;;;3.47;;
43678;SDS011;29279;50.858;4.392;2023-05-16T05:06:04;22.65;;;3.83;;
43678;SDS011;29279;50.858;4.392;2023-05-16T05:08:30;26.17;;;3.70;;
43678;SDS011;29279;50.858;4.392;2023-05-16T05:10:56;25.15;;;3.65;;
43678;SDS011;29279;50.858;4.392;2023-05-16T05:13:22;27.42;;;4.82;;
43678;SDS011;29279;50.858;4.392;2023-05-16T05:15:48;26.42;;;4.10;;
43678;SDS011;29279;50.858;4.392;2023-05-16T05:18:16;22.60;;;4.57;;
43678;SDS011;29279;50.858;4.392;2023-05-16T05:20:42;24.70;;;3.40;;
43678;SDS011;29279;50.858;4.392;2023-05-16T05:23:08;24.02;;;3.13;;
43678;SDS011;29279;50.858;4.392;2023-05-16T05:25:37;19.83;;;3.90;;
43678;SDS011;29279;50.858;4.392;2023-05-16T05:28:03;25.20;;;4.32;;
43678;SDS011;29279;50.858;4.392;2023-05-16T05:30:29;19.60;;;4.13;;
43678;SDS011;29279;50.858;4.392;2023-05-16T05:32:55;19.38;;;3.90;;
43678;SDS011;29279;50.858;4.392;2023-05-16T05:35:21;17.45;;;3.83;;
43678;SDS011;29279;50.858;4.392;2023-05-16T05:37:46;25.52;;;4.80;;
43678;SDS011;29279;50.858;4.392;2023-05-16T05:40:12;32.00;;;4.55;;
43678;SDS011;29279;50.858;4.392;2023-05-16T05:42:38;28.98;;;4.75;;
43678;SDS011;29279;50.858;4.392;2023-05-16T05:45:04;25.67;;;4.45;;
43678;SDS011;29279;50.858;4.392;2023-05-16T05:47:31;17.50;;;4.30;;
43678;SDS011;29279;50.858;4.392;2023-05-16T05:49:57;26.60;;;4.28;;
43678;SDS011;29279;50.858;4.392;2023-05-16T05:52:23;19.08;;;3.80;;
43678;SDS011;29279;50.858;4.392;2023-05-16T05:54:50;21.60;;;3.75;;
43678;SDS011;29279;50.858;4.392;2023-05-16T05:57:15;26.55;;;4.03;;
43678;SDS011;29279;50.858;4.392;2023-05-16T05:59:41;17.95;;;3.92;;
43678;SDS011;29279;50.858;4.392;2023-05-16T06:02:07;23.27;;;3.90;;
43678;SDS011;29279;50.858;4.392;2023-05-16T06:04:32;24.35;;;4.25;;
43678;SDS011;29279;50.858;4.392;2023-05-16T06:06:58;21.15;;;3.15;;
43678;SDS011;29279;50.858;4.392;2023-05-16T06:09:23;17.98;;;3.10;;
43678;SDS011;29279;50.858;4.392;2023-05-16T06:11:49;25.90;;;4.22;;
43678;SDS011;29279;50.858;4.392;2023-05-16T06:14:15;26.45;;;3.92;;
43678;SDS011;29279;50.858;4.392;2023-05-16T06:16:41;19.15;;;3.08;;
43678;SDS011;29279;50.858;4.392;2023-05-16T06:19:08;19.67;;;3.35;;
43678;SDS011;29279;50.858;4.392;2023-05-16T06:21:36;22.00;;;3.03;;
43678;SDS011;29279;50.858;4.392;2023-05-16T06:24:02;11.90;;;2.35;;
43678;SDS011;29279;50.858;4.392;2023-05-16T06:26:32;17.27;;;2.50;;
43678;SDS011;29279;50.858;4.392;2023-05-16T06:28:57;21.95;;;3.05;;
43678;SDS011;29279;50.858;4.392;2023-05-16T06:31:23;19.08;;;3.08;;
43678;SDS011;29279;50.858;4.392;2023-05-16T06:33:49;14.45;;;3.00;;
43678;SDS011;29279;50.858;4.392;2023-05-16T06:36:14;17.65;;;3.67;;
43678;SDS011;29279;50.858;4.392;2023-05-16T06:38:40;17.67;;;3.55;;
43678;SDS011;29279;50.858;4.392;2023-05-16T06:41:06;21.10;;;2.85;;
43678;SDS011;29279;50.858;4.392;2023-05-16T06:43:31;23.77;;;3.47;;
43678;SDS011;29279;50.858;4.392;2023-05-16T06:45:57;19.08;;;3.08;;
43678;SDS011;29279;50.858;4.392;2023-05-16T06:48:23;21.77;;;3.25;;
43678;SDS011;29279;50.858;4.392;2023-05-16T06:50:48;21.13;;;2.92;;
43678;SDS011;29279;50.858;4.392;2023-05-16T06:53:17;18.80;;;3.20;;
43678;SDS011;29279;50.858;4.392;2023-05-16T06:55:43;20.90;;;3.05;;
43678;SDS011;29279;50.858;4.392;2023-05-16T06:58:09;22.23;;;4.28;;
43678;SDS011;29279;50.858;4.392;2023-05-16T07:00:35;20.77;;;4.07;;
43678;SDS011;29279;50.858;4.392;2023-05-16T07:03:01;20.73;;;3.10;;
43678;SDS011;29279;50.858;4.392;2023-05-16T07:05:27;25.60;;;4.80;;
43678;SDS011;29279;50.858;4.392;2023-05-16T07:07:53;14.98;;;2.92;;
43678;SDS011;29279;50.858;4.392;2023-05-16T07:10:19;17.67;;;2.85;;
43678;SDS011;29279;50.858;4.392;2023-05-16T07:12:45;26.30;;;3.55;;
43678;SDS011;29279;50.858;4.392;2023-05-16T07:15:11;17.20;;;2.88;;
43678;SDS011;29279;50.858;4.392;2023-05-16T07:17:38;16.67;;;2.88;;
43678;SDS011;29279;50.858;4.392;2023-05-16T07:20:05;17.52;;;3.63;;
43678;SDS011;29279;50.858;4.392;2023-05-16T07:22:32;16.08;;;2.95;;
43678;SDS011;29279;50.858;4.392;2023-05-16T07:24:58;23.55;;;3.40;;
43678;SDS011;29279;50.858;4.392;2023-05-16T07:27:25;13.85;;;2.83;;
43678;SDS011;29279;50.858;4.392;2023-05-16T07:29:51;18.13;;;2.92;;
43678;SDS011;29279;50.858;4.392;2023-05-16T07:32:17;13.40;;;2.70;;
43678;SDS011;29279;50.858;4.392;2023-05-16T07:34:43;18.45;;;3.00;;
43678;SDS011;29279;50.858;4.392;2023-05-16T07:37:10;18.63;;;2.85;;
43678;SDS011;29279;50.858;4.392;2023-05-16T07:39:39;18.70;;;2.85;;
43678;SDS011;29279;50.858;4.392;2023-05-16T07:42:06;14.02;;;3.67;;
43678;SDS011;29279;50.858;4.392;2023-05-16T07:44:32;18.13;;;3.10;;
43678;SDS011;29279;50.858;4.392;2023-05-16T07:46:58;17.85;;;2.53;;
43678;SDS011;29279;50.858;4.392;2023-05-16T07:49:24;14.98;;;2.05;;
43678;SDS011;29279;50.858;4.392;2023-05-16T07:51:50;18.85;;;2.25;;
43678;SDS011;29279;50.858;4.392;2023-05-16T07:54:16;14.25;;;2.28;;
43678;SDS011;29279;50.858;4.392;2023-05-16T07:56:41;24.00;;;2.15;;
43678;SDS011;29279;50.858;4.392;2023-05-16T07:59:07;13.25;;;1.77;;
43678;SDS011;29279;50.858;4.392;2023-05-16T08:01:33;11.85;;;2.20;;
43678;SDS011;29279;50.858;4.392;2023-05-16T08:03:59;16.42;;;2.25;;
43678;SDS011;29279;50.858;4.392;2023-05-16T08:06:25;13.90;;;2.58;;
43678;SDS011;29279;50.858;4.392;2023-05-16T08:08:51;16.48;;;2.35;;
43678;SDS011;29279;50.858;4.392;2023-05-16T08:11:17;12.25;;;2.55;;
43678;SDS011;29279;50.858;4.392;2023-05-16T08:13:43;14.15;;;2.03;;
43678;SDS011;29279;50.858;4.392;2023-05-16T08:16:09;9.75;;;2.17;;
43678;SDS011;29279;50.858;4.392;2023-05-16T08:18:35;11.90;;;2.00;;
43678;SDS011;29279;50.858;4.392;2023-05-16T08:21:01;11.05;;;1.77;;
43678;SDS011;29279;50.858;4.392;2023-05-16T08:23:27;11.95;;;1.90;;
43678;SDS011;29279;50.858;4.392;2023-05-16T08:25:53;10.55;;;1.55;;
43678;SDS011;29279;50.858;4.392;2023-05-16T08:28:18;10.70;;;1.80;;
43678;SDS011;29279;50.858;4.392;2023-05-16T08:30:44;10.90;;;1.67;;
43678;SDS011;29279;50.858;4.392;2023-05-16T08:33:10;14.57;;;2.10;;
43678;SDS011;29279;50.858;4.392;2023-05-16T08:35:43;14.30;;;2.38;;
43678;SDS011;29279;50.858;4.392;2023-05-16T08:38:09;9.48;;;1.70;;
43678;SDS011;29279;50.858;4.392;2023-05-16T08:40:34;13.93;;;2.10;;
43678;SDS011;29279;50.858;4.392;2023-05-16T08:43:00;8.70;;;1.67;;
43678;SDS011;29279;50.858;4.392;2023-05-16T08:45:26;9.02;;;2.30;;
43678;SDS011;29279;50.858;4.392;2023-05-16T08:47:54;13.25;;;1.85;;
43678;SDS011;29279;50.858;4.392;2023-05-16T08:50:23;8.43;;;1.90;;
43678;SDS011;29279;50.858;4.392;2023-05-16T08:52:50;9.50;;;2.00;;
43678;SDS011;29279;50.858;4.392;2023-05-16T08:55:18;9.82;;;1.65;;
43678;SDS011;29279;50.858;4.392;2023-05-16T08:57:45;11.38;;;2.38;;
43678;SDS011;29279;50.858;4.392;2023-05-16T09:00:13;13.80;;;1.80;;
43678;SDS011;29279;50.858;4.392;2023-05-16T09:02:40;11.40;;;2.65;;
43678;SDS011;29279;50.858;4.392;2023-05-16T09:05:07;14.60;;;2.25;;
43678;SDS011;29279;50.858;4.392;2023-05-16T09:07:35;9.38;;;1.95;;
43678;SDS011;29279;50.858;4.392;2023-05-16T09:10:01;9.10;;;1.92;;
43678;SDS011;29279;50.858;4.392;2023-05-16T09:12:27;19.33;;;1.80;;
43678;SDS011;29279;50.858;4.392;2023-05-16T09:14:53;14.32;;;1.73;;
43678;SDS011;29279;50.858;4.392;2023-05-16T09:17:20;9.55;;;2.05;;
43678;SDS011;29279;50.858;4.392;2023-05-16T09:19:45;10.07;;;2.08;;
43678;SDS011;29279;50.858;4.392;2023-05-16T09:22:14;9.63;;;2.42;;
43678;SDS011;29279;50.858;4.392;2023-05-16T09:24:40;8.57;;;1.80;;
43678;SDS011;29279;50.858;4.392;2023-05-16T09:27:11;11.68;;;1.85;;
43678;SDS011;29279;50.858;4.392;2023-05-16T09:29:40;13.50;;;2.28;;
43678;SDS011;29279;50.858;4.392;2023-05-16T09:32:11;10.30;;;2.25;;
43678;SDS011;29279;50.858;4.392;2023-05-16T09:34:44;8.80;;;1.98;;
43678;SDS011;29279;50.858;4.392;2023-05-16T09:37:16;7.80;;;2.22;;
43678;SDS011;29279;50.858;4.392;2023-05-16T09:39:46;9.90;;;2.05;;
43678;SDS011;29279;50.858;4.392;2023-05-16T09:42:12;8.52;;;2.15;;
43678;SDS011;29279;50.858;4.392;2023-05-16T09:44:38;11.27;;;2.45;;
43678;SDS011;29279;50.858;4.392;2023-05-16T09:47:05;11.82;;;2.10;;
43678;SDS011;29279;50.858;4.392;2023-05-16T09:49:32;20.48;;;2.20;;
43678;SDS011;29279;50.858;4.392;2023-05-16T09:52:03;13.48;;;2.75;;
43678;SDS011;29279;50.858;4.392;2023-05-16T09:54:30;9.95;;;1.70;;
43678;SDS011;29279;50.858;4.392;2023-05-16T09:56:57;14.98;;;2.38;;
43678;SDS011;29279;50.858;4.392;2023-05-16T09:59:22;11.38;;;2.03;;
43678;SDS011;29279;50.858;4.392;2023-05-16T10:01:48;7.40;;;1.77;;
43678;SDS011;29279;50.858;4.392;2023-05-16T10:04:16;10.60;;;2.35;;
43678;SDS011;29279;50.858;4.392;2023-05-16T10:06:42;10.68;;;1.90;;
43678;SDS011;29279;50.858;4.392;2023-05-16T10:09:10;7.20;;;1.52;;
43678;SDS011;29279;50.858;4.392;2023-05-16T10:11:40;9.10;;;1.83;;
43678;SDS011;29279;50.858;4.392;2023-05-16T10:14:10;14.60;;;1.73;;
43678;SDS011;29279;50.858;4.392;2023-05-16T10:16:37;9.90;;;1.42;;
43678;SDS011;29279;50.858;4.392;2023-05-16T10:19:08;7.63;;;2.00;;
43678;SDS011;29279;50.858;4.392;2023-05-16T10:21:35;7.82;;;1.55;;
43678;SDS011;29279;50.858;4.392;2023-05-16T10:24:02;7.60;;;1.88;;
43678;SDS011;29279;50.858;4.392;2023-05-16T10:26:31;7.13;;;1.50;;
43678;SDS011;29279;50.858;4.392;2023-05-16T10:28:58;7.18;;;1.77;;
43678;SDS011;29279;50.858;4.392;2023-05-16T10:31:26;16.48;;;2.28;;
43678;SDS011;29279;50.858;4.392;2023-05-16T10:33:54;5.20;;;1.40;;
43678;SDS011;29279;50.858;4.392;2023-05-16T10:36:21;9.38;;;2.20;;
43678;SDS011;29279;50.858;4.392;2023-05-16T10:38:47;7.50;;;1.67;;
43678;SDS011;29279;50.858;4.392;2023-05-16T10:41:14;7.82;;;1.90;;
43678;SDS011;29279;50.858;4.392;2023-05-16T10:43:42;9.43;;;1.90;;
43678;SDS011;29279;50.858;4.392;2023-05-16T10:46:10;12.55;;;1.60;;
43678;SDS011;29279;50.858;4.392;2023-05-16T10:48:38;7.53;;;1.45;;
43678;SDS011;29279;50.858;4.392;2023-05-16T10:54:05;9.98;;;2.35;;
43678;SDS011;29279;50.858;4.392;2023-05-16T10:56:33;9.27;;;1.70;;
43678;SDS011;29279;50.858;4.392;2023-05-16T10:58:59;6.75;;;1.92;;
43678;SDS011;29279;50.858;4.392;2023-05-16T11:01:32;9.57;;;1.67;;
43678;SDS011;29279;50.858;4.392;2023-05-16T11:14:23;6.57;;;1.60;;
43678;SDS011;29279;50.858;4.392;2023-05-16T11:17:15;4.95;;;1.73;;
43678;SDS011;29279;50.858;4.392;2023-05-16T11:19:45;10.90;;;1.73;;
43678;SDS011;29279;50.858;4.392;2023-05-16T11:22:25;8.65;;;1.95;;
43678;SDS011;29279;50.858;4.392;2023-05-16T11:24:54;5.82;;;1.60;;
43678;SDS011;29279;50.858;4.392;2023-05-16T11:27:22;4.55;;;1.27;;
43678;SDS011;29279;50.858;4.392;2023-05-16T11:29:50;6.75;;;1.42;;
43678;SDS011;29279;50.858;4.392;2023-05-16T11:32:20;10.38;;;1.98;;
43678;SDS011;29279;50.858;4.392;2023-05-16T11:34:47;7.65;;;1.60;;
43678;SDS011;29279;50.858;4.392;2023-05-16T11:37:14;7.18;;;1.67;;
43678;SDS011;29279;50.858;4.392;2023-05-16T11:39:41;7.20;;;1.63;;
43678;SDS011;29279;50.858;4.392;2023-05-16T11:42:07;10.50;;;1.88;;
43678;SDS011;29279;50.858;4.392;2023-05-16T11:44:33;6.18;;;2.08;;
43678;SDS011;29279;50.858;4.392;2023-05-16T11:46:59;8.38;;;1.83;;
43678;SDS011;29279;50.858;4.392;2023-05-16T11:49:29;6.20;;;1.63;;
43678;SDS011;29279;50.858;4.392;2023-05-16T11:51:55;7.50;;;1.73;;
43678;SDS011;29279;50.858;4.392;2023-05-16T11:54:22;6.20;;;1.55;;
43678;SDS011;29279;50.858;4.392;2023-05-16T11:56:49;9.40;;;2.47;;
43678;SDS011;29279;50.858;4.392;2023-05-16T11:59:18;7.03;;;1.67;;
43678;SDS011;29279;50.858;4.392;2023-05-16T12:01:45;8.63;;;1.92;;
43678;SDS011;29279;50.858;4.392;2023-05-16T12:04:14;8.85;;;2.13;;
43678;SDS011;29279;50.858;4.392;2023-05-16T12:06:41;10.07;;;2.22;;
43678;SDS011;29279;50.858;4.392;2023-05-16T12:09:14;5.45;;;1.52;;
43678;SDS011;29279;50.858;4.392;2023-05-16T12:11:41;6.97;;;1.45;;
43678;SDS011;29279;50.858;4.392;2023-05-16T12:14:08;11.70;;;1.85;;
43678;SDS011;29279;50.858;4.392;2023-05-16T12:16:36;10.63;;;2.17;;
43678;SDS011;29279;50.858;4.392;2023-05-16T12:19:03;6.75;;;1.38;;
43678;SDS011;29279;50.858;4.392;2023-05-16T12:21:30;6.53;;;2.17;;
43678;SDS011;29279;50.858;4.392;2023-05-16T12:23:56;19.15;;;2.45;;
43678;SDS011;29279;50.858;4.392;2023-05-16T12:26:26;8.43;;;1.35;;
43678;SDS011;29279;50.858;4.392;2023-05-16T12:28:57;9.70;;;1.27;;
43678;SDS011;29279;50.858;4.392;2023-05-16T12:31:30;9.20;;;1.38;;
43678;SDS011;29279;50.858;4.392;2023-05-16T12:34:01;5.88;;;1.60;;
43678;SDS011;29279;50.858;4.392;2023-05-16T12:36:30;5.35;;;1.33;;
43678;SDS011;29279;50.858;4.392;2023-05-16T12:39:02;6.13;;;1.40;;
43678;SDS011;29279;50.858;4.392;2023-05-16T12:41:28;10.70;;;1.98;;
43678;SDS011;29279;50.858;4.392;2023-05-16T12:44:15;7.97;;;1.35;;
43678;SDS011;29279;50.858;4.392;2023-05-16T12:46:43;9.68;;;1.77;;
43678;SDS011;29279;50.858;4.392;2023-05-16T12:49:11;8.05;;;1.50;;
43678;SDS011;29279;50.858;4.392;2023-05-16T12:51:37;6.75;;;1.35;;
43678;SDS011;29279;50.858;4.392;2023-05-16T12:54:10;6.72;;;1.50;;
43678;SDS011;29279;50.858;4.392;2023-05-16T12:59:05;7.82;;;1.60;;
43678;SDS011;29279;50.858;4.392;2023-05-16T13:01:32;6.72;;;1.27;;
43678;SDS011;29279;50.858;4.392;2023-05-16T13:03:59;5.25;;;1.38;;
43678;SDS011;29279;50.858;4.392;2023-05-16T13:06:25;5.38;;;1.35;;
43678;SDS011;29279;50.858;4.392;2023-05-16T13:08:50;4.88;;;1.42;;
43678;SDS011;29279;50.858;4.392;2023-05-16T13:11:16;8.90;;;1.33;;
43678;SDS011;29279;50.858;4.392;2023-05-16T13:13:43;3.55;;;1.08;;
43678;SDS011;29279;50.858;4.392;2023-05-16T13:16:09;7.97;;;1.50;;
43678;SDS011;29279;50.858;4.392;2023-05-16T13:18:35;7.93;;;1.25;;
43678;SDS011;29279;50.858;4.392;2023-05-16T13:21:01;5.57;;;1.27;;
43678;SDS011;29279;50.858;4.392;2023-05-16T13:23:28;5.22;;;1.17;;
43678;SDS011;29279;50.858;4.392;2023-05-16T13:25:54;4.60;;;1.20;;
43678;SDS011;29279;50.858;4.392;2023-05-16T13:28:20;4.75;;;1.40;;
43678;SDS011;29279;50.858;4.392;2023-05-16T13:30:46;8.27;;;1.70;;
43678;SDS011;29279;50.858;4.392;2023-05-16T13:33:12;7.28;;;1.50;;
43678;SDS011;29279;50.858;4.392;2023-05-16T13:35:38;7.57;;;1.52;;
43678;SDS011;29279;50.858;4.392;2023-05-16T13:38:03;6.93;;;1.13;;
43678;SDS011;29279;50.858;4.392;2023-05-16T13:40:29;10.00;;;1.33;;
43678;SDS011;29279;50.858;4.392;2023-05-16T13:42:55;9.43;;;1.95;;
43678;SDS011;29279;50.858;4.392;2023-05-16T13:45:21;4.40;;;1.33;;
43678;SDS011;29279;50.858;4.392;2023-05-16T13:47:47;4.95;;;1.60;;
43678;SDS011;29279;50.858;4.392;2023-05-16T13:50:12;6.45;;;1.25;;
43678;SDS011;29279;50.858;4.392;2023-05-16T13:52:38;5.55;;;1.48;;
43678;SDS011;29279;50.858;4.392;2023-05-16T13:55:05;5.78;;;1.05;;
43678;SDS011;29279;50.858;4.392;2023-05-16T13:57:31;5.30;;;1.45;;
43678;SDS011;29279;50.858;4.392;2023-05-16T13:59:57;6.20;;;1.33;;
43678;SDS011;29279;50.858;4.392;2023-05-16T14:02:23;5.47;;;1.15;;
43678;SDS011;29279;50.858;4.392;2023-05-16T14:04:50;10.57;;;1.73;;
43678;SDS011;29279;50.858;4.392;2023-05-16T14:07:16;9.25;;;1.58;;
43678;SDS011;29279;50.858;4.392;2023-05-16T14:09:42;7.90;;;1.50;;
43678;SDS011;29279;50.858;4.392;2023-05-16T14:12:09;10.52;;;1.70;;
43678;SDS011;29279;50.858;4.392;2023-05-16T14:14:35;9.32;;;2.03;;
43678;SDS011;29279;50.858;4.392;2023-05-16T14:17:01;5.55;;;1.33;;
43678;SDS011;29279;50.858;4.392;2023-05-16T14:19:28;6.93;;;1.33;;
43678;SDS011;29279;50.858;4.392;2023-05-16T14:21:54;6.43;;;1.92;;
43678;SDS011;29279;50.858;4.392;2023-05-16T14:24:20;7.80;;;1.40;;
43678;SDS011;29279;50.858;4.392;2023-05-16T14:26:46;5.00;;;1.52;;
43678;SDS011;29279;50.858;4.392;2023-05-16T14:29:12;9.48;;;1.73;;
43678;SDS011;29279;50.858;4.392;2023-05-16T14:31:38;8.55;;;1.58;;
43678;SDS011;29279;50.858;4.392;2023-05-16T14:34:04;13.10;;;1.95;;
43678;SDS011;29279;50.858;4.392;2023-05-16T14:36:30;4.78;;;1.38;;
43678;SDS011;29279;50.858;4.392;2023-05-16T14:38:57;8.93;;;1.83;;
43678;SDS011;29279;50.858;4.392;2023-05-16T14:41:22;9.00;;;1.85;;
43678;SDS011;29279;50.858;4.392;2023-05-16T14:43:49;10.60;;;1.90;;
43678;SDS011;29279;50.858;4.392;2023-05-16T14:46:15;10.00;;;1.67;;
43678;SDS011;29279;50.858;4.392;2023-05-16T14:48:41;5.03;;;1.38;;
43678;SDS011;29279;50.858;4.392;2023-05-16T14:51:06;5.82;;;1.30;;
43678;SDS011;29279;50.858;4.392;2023-05-16T14:53:32;9.30;;;1.98;;
43678;SDS011;29279;50.858;4.392;2023-05-16T14:56:01;8.27;;;1.42;;
43678;SDS011;29279;50.858;4.392;2023-05-16T14:58:28;3.47;;;1.17;;
43678;SDS011;29279;50.858;4.392;2023-05-16T15:00:54;9.07;;;1.40;;
43678;SDS011;29279;50.858;4.392;2023-05-16T15:03:21;5.78;;;1.58;;